Time;durP1;ratioP1;P1;durP2;ratioP2;P2;SDS_P1;SDS_P2;PMS_P1;PMS_P2;Temp;Humidity;BMP_temperature;BMP_pressure;BME280_temperature;BME280_humidity;BME280_pressure;Samples;Min_cycle;Max_cycle;Signal;HPM_P1;HPM_P2
2023/07/16 00:00:18;;;;;;;1.00;0.80;;;19.70;99.90;;;;;;5137202;27;20455;-82
2023/07/16 00:02:45;;;;;;;1.27;0.90;;;19.60;99.90;;;;;;5136569;27;20489;-82
2023/07/16 00:05:11;;;;;;;0.80;0.70;;;19.60;99.90;;;;;;5136670;27;20450;-82
2023/07/16 00:07:38;;;;;;;4.30;0.93;;;19.60;99.90;;;;;;5137131;27;20461;-82
2023/07/16 00:10:06;;;;;;;1.00;0.90;;;19.60;99.90;;;;;;5136809;27;20489;-82
2023/07/16 00:12:32;;;;;;;2.03;1.20;;;19.50;99.90;;;;;;5136565;27;20963;-82
2023/07/16 00:14:59;;;;;;;4.80;0.57;;;19.50;99.90;;;;;;5136912;27;20430;-81
2023/07/16 00:17:27;;;;;;;0.70;0.70;;;19.40;99.90;;;;;;5136891;27;20448;-81
2023/07/16 00:19:54;;;;;;;1.17;0.80;;;19.40;99.90;;;;;;5136879;27;20465;-82
2023/07/16 00:22:21;;;;;;;0.50;0.50;;;19.40;99.90;;;;;;5136604;27;20457;-81
2023/07/16 00:24:48;;;;;;;0.60;0.53;;;19.50;99.90;;;;;;5136724;27;20469;-80
2023/07/16 00:27:14;;;;;;;0.80;0.70;;;19.40;99.90;;;;;;5136218;27;20442;-80
2023/07/16 00:29:41;;;;;;;1.90;0.67;;;19.40;99.90;;;;;;5136334;27;20482;-80
2023/07/16 00:32:08;;;;;;;0.60;0.60;;;19.40;99.90;;;;;;5136554;27;20446;-80
2023/07/16 00:34:36;;;;;;;0.40;0.40;;;19.30;99.90;;;;;;5136335;27;20476;-80
2023/07/16 00:37:03;;;;;;;0.70;0.60;;;19.20;99.90;;;;;;5136431;27;20468;-80
2023/07/16 00:39:30;;;;;;;0.60;0.40;;;19.20;99.90;;;;;;5136390;27;20446;-79
2023/07/16 00:41:57;;;;;;;0.50;0.50;;;19.20;99.90;;;;;;5136224;27;20862;-80
2023/07/16 00:44:24;;;;;;;1.40;0.60;;;19.10;99.90;;;;;;5135901;27;20824;-80
2023/07/16 00:46:51;;;;;;;0.50;0.50;;;19.00;99.90;;;;;;5136299;27;20449;-80
2023/07/16 00:49:18;;;;;;;0.63;0.63;;;19.00;99.90;;;;;;5135784;27;20478;-80
2023/07/16 00:51:48;;;;;;;0.40;0.37;;;18.80;99.90;;;;;;5136174;27;20441;-83
2023/07/16 00:54:15;;;;;;;0.60;0.60;;;18.80;99.90;;;;;;5136031;27;20826;-83
2023/07/16 00:56:41;;;;;;;0.50;0.40;;;18.60;99.90;;;;;;5135885;27;20453;-82
2023/07/16 00:59:08;;;;;;;0.60;0.40;;;18.60;99.90;;;;;;5135456;27;20451;-82
2023/07/16 01:01:35;;;;;;;0.50;0.50;;;18.50;99.90;;;;;;5135140;27;20896;-82
2023/07/16 01:04:02;;;;;;;0.50;0.50;;;18.40;99.90;;;;;;5135366;27;20445;-82
2023/07/16 01:06:35;;;;;;;1.43;0.60;;;18.30;99.90;;;;;;5135567;27;20434;-82
2023/07/16 01:09:08;;;;;;;0.40;0.40;;;18.20;99.90;;;;;;5135261;27;20469;-82
2023/07/16 01:11:36;;;;;;;1.20;0.77;;;18.20;99.90;;;;;;5135199;27;20466;-81
2023/07/16 01:14:03;;;;;;;0.40;0.40;;;18.10;99.90;;;;;;5135216;27;20442;-81
2023/07/16 01:16:30;;;;;;;0.60;0.50;;;18.10;99.90;;;;;;5135474;27;20449;-81
2023/07/16 01:18:58;;;;;;;0.50;0.50;;;18.00;99.90;;;;;;5135102;27;20446;-81
2023/07/16 01:21:32;;;;;;;0.53;0.53;;;18.00;99.90;;;;;;5135308;27;20485;-82
2023/07/16 01:24:18;;;;;;;0.60;0.53;;;18.00;99.90;;;;;;5135369;27;20430;-82
2023/07/16 01:27:13;;;;;;;0.70;0.57;;;18.00;99.90;;;;;;5135344;27;20426;-82
2023/07/16 01:29:47;;;;;;;0.50;0.50;;;18.00;99.90;;;;;;5128792;27;20854;-82
2023/07/16 01:32:15;;;;;;;0.40;0.40;;;17.90;99.90;;;;;;5135224;27;20433;-82
2023/07/16 01:34:43;;;;;;;0.60;0.60;;;17.90;99.90;;;;;;5135141;27;20453;-82
2023/07/16 01:37:11;;;;;;;0.60;0.60;;;17.80;99.90;;;;;;5134967;27;20482;-83
2023/07/16 01:39:38;;;;;;;0.50;0.50;;;17.90;99.90;;;;;;5134832;27;20461;-82
2023/07/16 01:42:05;;;;;;;0.53;0.43;;;17.90;99.90;;;;;;5134760;27;20453;-83
2023/07/16 01:44:32;;;;;;;0.50;0.40;;;17.90;99.90;;;;;;5135048;27;20457;-84
2023/07/16 01:47:08;;;;;;;0.73;0.53;;;17.90;99.90;;;;;;5134967;27;20473;-84
2023/07/16 01:49:35;;;;;;;0.70;0.50;;;17.90;99.90;;;;;;5134942;27;20481;-84
2023/07/16 01:52:03;;;;;;;0.50;0.50;;;17.90;99.90;;;;;;5134840;27;20447;-84
2023/07/16 01:54:30;;;;;;;4.03;0.60;;;17.90;99.90;;;;;;5134777;27;20502;-82
2023/07/16 01:56:57;;;;;;;0.60;0.40;;;17.90;99.90;;;;;;5134789;27;20452;-82
2023/07/16 01:59:24;;;;;;;0.73;0.40;;;17.90;99.90;;;;;;5134399;27;20435;-82
2023/07/16 02:01:51;;;;;;;0.43;0.43;;;17.90;99.90;;;;;;5134469;27;20474;-84
2023/07/16 02:04:19;;;;;;;0.60;0.50;;;17.80;99.90;;;;;;5143047;27;20448;-84
2023/07/16 02:06:47;;;;;;;0.90;0.50;;;17.80;99.90;;;;;;5134067;27;20450;-84
2023/07/16 02:09:14;;;;;;;0.80;0.47;;;17.80;99.90;;;;;;5134659;27;20486;-84
2023/07/16 02:11:41;;;;;;;0.50;0.50;;;17.80;99.90;;;;;;5134262;27;20457;-84
2023/07/16 02:14:08;;;;;;;0.50;0.43;;;17.80;99.90;;;;;;5134668;27;20441;-84
2023/07/16 02:16:34;;;;;;;0.40;0.40;;;17.80;99.90;;;;;;5134612;27;20449;-84
2023/07/16 02:19:01;;;;;;;0.87;0.53;;;17.80;99.90;;;;;;5134268;27;20446;-84
2023/07/16 02:21:29;;;;;;;0.67;0.67;;;17.80;99.90;;;;;;5134160;27;21006;-84
2023/07/16 02:23:56;;;;;;;1.33;0.70;;;17.70;99.90;;;;;;5134490;27;20446;-83
2023/07/16 02:26:23;;;;;;;0.50;0.50;;;17.70;99.90;;;;;;5134436;27;20449;-84
2023/07/16 02:28:50;;;;;;;0.80;0.50;;;17.70;99.90;;;;;;5134067;27;20453;-85
2023/07/16 02:31:16;;;;;;;1.00;0.50;;;17.60;99.90;;;;;;5134468;27;20462;-84
2023/07/16 02:33:43;;;;;;;0.80;0.60;;;17.70;99.90;;;;;;5134375;27;20434;-84
2023/07/16 02:36:10;;;;;;;0.50;0.50;;;17.60;99.90;;;;;;5134422;27;20422;-85
2023/07/16 02:38:38;;;;;;;0.53;0.40;;;17.60;99.90;;;;;;5134545;27;20440;-84
2023/07/16 02:41:05;;;;;;;0.50;0.50;;;17.60;99.90;;;;;;5134467;27;20835;-84
2023/07/16 02:43:31;;;;;;;0.93;0.60;;;17.50;99.90;;;;;;5134345;27;20960;-85
2023/07/16 02:45:58;;;;;;;0.50;0.50;;;17.50;99.90;;;;;;5134321;27;20453;-84
2023/07/16 02:48:25;;;;;;;0.40;0.40;;;17.50;99.90;;;;;;5134298;27;20442;-84
2023/07/16 02:50:52;;;;;;;1.00;0.60;;;17.40;99.90;;;;;;5134093;27;20486;-85
2023/07/16 02:53:18;;;;;;;0.40;0.40;;;17.40;99.90;;;;;;5133967;27;20441;-84
2023/07/16 02:55:47;;;;;;;0.50;0.40;;;17.30;99.90;;;;;;5134206;27;20449;-82
2023/07/16 02:58:14;;;;;;;0.50;0.50;;;17.30;99.90;;;;;;5134066;27;20438;-82
2023/07/16 03:00:41;;;;;;;4.37;0.60;;;17.30;99.90;;;;;;5133874;27;20469;-82
2023/07/16 03:03:07;;;;;;;1.10;0.60;;;17.20;99.90;;;;;;5133506;27;20470;-82
2023/07/16 03:05:34;;;;;;;0.63;0.53;;;17.10;99.90;;;;;;5133736;27;20442;-82
2023/07/16 03:08:01;;;;;;;1.70;0.60;;;17.20;99.90;;;;;;5133972;27;20446;-82
2023/07/16 03:10:28;;;;;;;3.90;0.73;;;17.10;99.90;;;;;;5133815;27;20497;-82
2023/07/16 03:12:56;;;;;;;0.50;0.50;;;17.10;99.90;;;;;;5134013;27;20453;-81
2023/07/16 03:15:23;;;;;;;0.60;0.50;;;17.10;99.90;;;;;;5133694;27;20433;-82
2023/07/16 03:17:50;;;;;;;1.37;0.50;;;17.10;99.90;;;;;;5135789;27;20457;-82
2023/07/16 03:20:17;;;;;;;0.40;0.40;;;17.20;99.90;;;;;;5137384;27;20462;-82
2023/07/16 03:22:43;;;;;;;0.80;0.60;;;17.20;99.90;;;;;;5137684;27;20448;-82
2023/07/16 03:25:10;;;;;;;0.83;0.47;;;17.10;99.90;;;;;;5137416;27;20932;-82
2023/07/16 03:27:37;;;;;;;0.80;0.70;;;17.10;99.90;;;;;;5137646;27;20449;-82
2023/07/16 03:30:07;;;;;;;1.17;0.80;;;17.10;99.90;;;;;;5137168;27;20481;-82
2023/07/16 03:32:33;;;;;;;0.50;0.50;;;17.10;99.90;;;;;;5137483;27;20456;-82
2023/07/16 03:35:00;;;;;;;1.63;1.17;;;17.20;99.90;;;;;;5137631;27;20444;-82
2023/07/16 03:37:27;;;;;;;2.83;0.60;;;17.20;99.90;;;;;;5137445;27;20453;-84
2023/07/16 03:39:54;;;;;;;9.40;1.13;;;17.10;99.90;;;;;;5137443;27;20847;-84
2023/07/16 03:42:22;;;;;;;0.60;0.60;;;17.10;99.90;;;;;;5137154;27;20446;-84
2023/07/16 03:44:48;;;;;;;5.93;0.50;;;17.10;99.90;;;;;;5137127;27;20482;-85
2023/07/16 03:47:17;;;;;;;1.13;0.63;;;17.10;99.90;;;;;;5137210;27;20944;-83
2023/07/16 03:49:43;;;;;;;0.70;0.70;;;17.00;99.90;;;;;;5136723;27;20836;-83
2023/07/16 03:52:10;;;;;;;1.10;0.70;;;17.00;99.90;;;;;;5137134;27;20454;-83
2023/07/16 03:54:37;;;;;;;1.30;0.50;;;17.00;99.90;;;;;;5136749;27;20445;-82
2023/07/16 03:57:04;;;;;;;0.50;0.50;;;17.00;99.90;;;;;;5137047;27;20453;-83
2023/07/16 03:59:31;;;;;;;0.97;0.40;;;16.90;99.90;;;;;;5136931;27;20802;-83
2023/07/16 04:01:58;;;;;;;1.87;0.80;;;17.00;99.90;;;;;;5136682;27;20486;-85
2023/07/16 04:04:26;;;;;;;4.03;0.93;;;17.00;99.90;;;;;;5137143;27;20446;-85
2023/07/16 04:06:53;;;;;;;2.20;0.87;;;17.00;99.90;;;;;;5137163;27;20450;-84
2023/07/16 04:09:19;;;;;;;0.50;0.50;;;17.00;99.90;;;;;;5136928;27;20473;-85
2023/07/16 04:11:46;;;;;;;0.60;0.53;;;17.10;99.90;;;;;;5136806;27;20968;-85
2023/07/16 04:14:13;;;;;;;2.50;0.60;;;17.10;99.90;;;;;;5137080;27;20457;-86
2023/07/16 04:16:39;;;;;;;0.80;0.50;;;17.00;99.90;;;;;;5136935;27;20445;-85
2023/07/16 04:19:07;;;;;;;1.77;0.90;;;17.10;99.90;;;;;;5136916;27;20446;-86
2023/07/16 04:21:35;;;;;;;0.63;0.50;;;17.10;99.90;;;;;;5136821;27;20502;-85
2023/07/16 04:24:02;;;;;;;0.50;0.43;;;17.00;99.90;;;;;;5136553;27;20917;-85
2023/07/16 04:26:29;;;;;;;0.50;0.50;;;17.10;99.90;;;;;;5136801;27;20446;-85
2023/07/16 04:28:56;;;;;;;0.50;0.50;;;17.10;99.90;;;;;;5136172;27;20446;-85
2023/07/16 04:31:24;;;;;;;0.73;0.73;;;17.00;99.90;;;;;;5136541;27;20504;-85
2023/07/16 04:33:51;;;;;;;1.03;0.93;;;16.90;99.90;;;;;;5136175;27;20474;-86
2023/07/16 04:36:18;;;;;;;0.83;0.60;;;16.90;99.90;;;;;;5136523;27;20443;-84
2023/07/16 04:38:46;;;;;;;0.60;0.60;;;17.00;99.90;;;;;;5136560;27;20442;-85
2023/07/16 04:41:13;;;;;;;0.70;0.70;;;16.90;99.90;;;;;;5136385;27;20461;-85
2023/07/16 04:43:40;;;;;;;0.80;0.50;;;16.90;99.90;;;;;;5136403;27;20507;-85
2023/07/16 04:46:06;;;;;;;0.47;0.47;;;16.90;99.90;;;;;;5136058;27;20446;-83
2023/07/16 04:48:33;;;;;;;1.03;0.50;;;17.00;99.90;;;;;;5135730;27;20441;-83
2023/07/16 04:51:00;;;;;;;0.70;0.67;;;16.90;99.90;;;;;;5135958;27;20486;-85
2023/07/16 04:53:27;;;;;;;0.40;0.40;;;16.90;99.90;;;;;;5136262;27;20518;-85
2023/07/16 04:55:56;;;;;;;0.63;0.50;;;16.90;99.90;;;;;;5135813;27;20454;-85
2023/07/16 04:58:23;;;;;;;0.90;0.70;;;16.80;99.90;;;;;;5136111;27;20466;-85
2023/07/16 05:00:50;;;;;;;0.60;0.53;;;16.90;99.90;;;;;;5135556;27;20462;-85
2023/07/16 05:03:16;;;;;;;2.77;0.70;;;16.90;99.90;;;;;;5136015;27;20434;-85
2023/07/16 05:05:43;;;;;;;0.73;0.60;;;16.90;99.90;;;;;;5136108;27;20450;-85
2023/07/16 05:08:10;;;;;;;0.60;0.60;;;16.90;99.90;;;;;;5135699;27;20559;-86
2023/07/16 05:10:37;;;;;;;0.90;0.90;;;16.90;99.90;;;;;;5135831;27;20485;-85
2023/07/16 05:13:05;;;;;;;0.70;0.60;;;16.90;99.90;;;;;;5135795;27;20459;-85
2023/07/16 05:15:33;;;;;;;1.33;0.70;;;16.90;99.90;;;;;;5135815;27;20446;-86
2023/07/16 05:17:59;;;;;;;2.60;0.57;;;16.90;99.90;;;;;;5135399;27;20938;-86
2023/07/16 05:20:26;;;;;;;1.60;0.73;;;17.10;99.90;;;;;;5135438;27;20473;-86
2023/07/16 05:22:53;;;;;;;0.80;0.80;;;17.00;99.90;;;;;;5135796;27;20446;-86
2023/07/16 05:25:19;;;;;;;1.03;0.50;;;17.10;99.90;;;;;;5135635;27;20469;-85
2023/07/16 05:27:46;;;;;;;1.10;0.60;;;17.10;99.90;;;;;;5135249;27;20441;-86
2023/07/16 05:30:14;;;;;;;2.00;0.57;;;17.10;99.90;;;;;;5135187;27;20478;-85
2023/07/16 05:32:42;;;;;;;0.60;0.50;;;17.10;99.90;;;;;;5135414;27;20443;-85
2023/07/16 05:35:09;;;;;;;0.60;0.57;;;17.10;99.90;;;;;;5135390;27;20446;-85
2023/07/16 05:37:35;;;;;;;0.70;0.50;;;17.00;99.90;;;;;;5135425;27;20451;-85
2023/07/16 05:40:03;;;;;;;2.63;0.60;;;17.10;99.90;;;;;;5135158;27;20463;-85
2023/07/16 05:42:30;;;;;;;0.70;0.70;;;17.20;99.90;;;;;;5134739;27;20442;-85
2023/07/16 05:44:56;;;;;;;0.60;0.50;;;17.20;99.90;;;;;;5134790;27;20445;-85
2023/07/16 05:47:24;;;;;;;0.70;0.50;;;17.40;99.90;;;;;;5135121;27;20453;-86
2023/07/16 05:49:51;;;;;;;2.00;0.77;;;17.30;99.90;;;;;;5134976;27;20485;-84
2023/07/16 05:52:18;;;;;;;0.70;0.53;;;17.40;99.90;;;;;;5135083;27;20779;-85
2023/07/16 05:54:45;;;;;;;1.00;0.63;;;17.40;99.90;;;;;;5135006;27;20537;-86
2023/07/16 05:57:12;;;;;;;0.50;0.50;;;17.30;99.90;;;;;;5135123;27;20438;-85
2023/07/16 05:59:39;;;;;;;0.80;0.50;;;17.30;99.90;;;;;;5135043;27;20466;-85
2023/07/16 06:02:06;;;;;;;0.53;0.50;;;17.30;99.90;;;;;;5134671;27;20489;-85
2023/07/16 06:04:34;;;;;;;2.33;0.60;;;17.30;99.90;;;;;;5135003;27;20449;-85
2023/07/16 06:07:01;;;;;;;0.60;0.50;;;17.30;99.90;;;;;;5135022;27;20537;-85
2023/07/16 06:09:28;;;;;;;0.70;0.70;;;17.40;99.90;;;;;;5134942;27;20812;-86
2023/07/16 06:11:55;;;;;;;1.13;0.60;;;17.40;99.90;;;;;;5134903;27;20566;-86
2023/07/16 06:14:21;;;;;;;1.37;0.90;;;17.40;99.90;;;;;;5138482;27;20450;-85
2023/07/16 06:16:48;;;;;;;1.63;0.63;;;17.40;99.90;;;;;;5136456;27;20476;-85
2023/07/16 06:19:15;;;;;;;0.77;0.70;;;17.40;99.90;;;;;;5134715;27;20464;-85
2023/07/16 06:21:43;;;;;;;1.03;0.73;;;17.40;99.90;;;;;;5134506;27;20960;-85
2023/07/16 06:24:10;;;;;;;2.83;0.77;;;17.40;99.90;;;;;;5134972;27;20446;-85
2023/07/16 06:26:37;;;;;;;0.63;0.60;;;17.40;99.90;;;;;;5134868;27;20483;-85
2023/07/16 06:29:04;;;;;;;0.80;0.70;;;17.40;99.90;;;;;;5134708;27;20442;-85
2023/07/16 06:31:31;;;;;;;3.13;0.60;;;17.40;99.90;;;;;;5134490;27;20485;-85
2023/07/16 06:33:57;;;;;;;0.60;0.50;;;17.50;99.90;;;;;;5134193;27;20938;-85
2023/07/16 06:36:24;;;;;;;0.90;0.60;;;17.50;99.90;;;;;;5134381;27;20475;-85
2023/07/16 06:38:52;;;;;;;0.70;0.70;;;17.70;99.90;;;;;;5134295;27;20956;-86
2023/07/16 06:41:19;;;;;;;1.10;0.63;;;17.70;99.90;;;;;;5134619;27;20453;-85
2023/07/16 06:43:46;;;;;;;0.70;0.70;;;17.80;99.90;;;;;;5134256;27;20431;-85
2023/07/16 06:46:13;;;;;;;0.63;0.63;;;17.90;99.90;;;;;;5134392;27;20438;-85
2023/07/16 06:48:39;;;;;;;0.70;0.70;;;18.00;99.90;;;;;;5134203;27;20933;-86
2023/07/16 06:51:06;;;;;;;1.20;0.90;;;18.10;99.90;;;;;;5134459;27;20482;-87
2023/07/16 06:53:33;;;;;;;1.27;0.70;;;18.30;99.90;;;;;;5137859;27;20450;-85
2023/07/16 06:56:02;;;;;;;0.70;0.70;;;18.30;99.90;;;;;;5138633;27;20456;-86
2023/07/16 06:58:33;;;;;;;0.50;0.50;;;18.40;99.90;;;;;;5138681;27;20472;-86
2023/07/16 07:01:00;;;;;;;1.00;0.70;;;18.50;99.90;;;;;;5138369;27;20972;-86
2023/07/16 07:03:27;;;;;;;2.80;0.80;;;18.60;99.90;;;;;;5138479;27;20451;-86
2023/07/16 07:05:54;;;;;;;0.80;0.80;;;18.70;99.90;;;;;;5138588;27;20421;-86
2023/07/16 07:08:21;;;;;;;0.73;0.60;;;18.80;99.90;;;;;;5146889;27;20446;-86
2023/07/16 07:10:49;;;;;;;3.40;0.80;;;19.00;99.90;;;;;;5138400;27;20485;-86
2023/07/16 07:13:17;;;;;;;1.73;0.63;;;19.10;99.90;;;;;;5138548;27;20433;-86
2023/07/16 07:15:44;;;;;;;0.90;0.80;;;19.20;99.90;;;;;;5138312;27;20830;-87
2023/07/16 07:18:11;;;;;;;2.00;0.70;;;19.50;99.90;;;;;;5138136;27;20445;-86
2023/07/16 07:20:38;;;;;;;1.27;0.60;;;19.40;99.90;;;;;;5138137;27;20992;-88
2023/07/16 07:23:05;;;;;;;1.67;0.70;;;19.40;99.90;;;;;;5138290;27;20955;-87
2023/07/16 07:25:32;;;;;;;0.70;0.40;;;19.50;99.90;;;;;;5138392;27;20940;-87
2023/07/16 07:27:58;;;;;;;0.80;0.77;;;19.70;99.90;;;;;;5138235;27;20446;-87
2023/07/16 07:30:27;;;;;;;5.80;1.00;;;19.80;99.90;;;;;;5137698;27;20999;-87
2023/07/16 07:32:53;;;;;;;2.77;0.50;;;20.20;99.90;;;;;;5137966;27;20449;-88
2023/07/16 07:35:20;;;;;;;1.93;0.60;;;20.40;99.90;;;;;;5137595;27;20455;-86
2023/07/16 07:37:47;;;;;;;1.60;0.60;;;20.70;99.90;;;;;;5137945;27;20438;-87
2023/07/16 07:40:14;;;;;;;0.70;0.60;;;20.70;99.90;;;;;;5138033;27;20469;-87
2023/07/16 07:42:41;;;;;;;0.50;0.50;;;21.00;99.90;;;;;;5137903;27;20449;-87
2023/07/16 07:45:08;;;;;;;1.07;0.50;;;21.00;99.90;;;;;;5138039;27;20442;-88
2023/07/16 07:47:36;;;;;;;1.80;0.60;;;20.80;99.90;;;;;;5137785;27;20453;-87
2023/07/16 07:50:03;;;;;;;2.23;0.60;;;20.90;99.90;;;;;;5137820;27;20465;-87
2023/07/16 07:52:30;;;;;;;1.57;0.60;;;21.10;99.90;;;;;;5137905;27;20471;-88
2023/07/16 07:54:57;;;;;;;2.93;0.60;;;21.40;99.90;;;;;;5137727;27;20816;-87
2023/07/16 07:57:23;;;;;;;0.67;0.63;;;21.50;99.90;;;;;;5137596;27;20441;-87
2023/07/16 07:59:51;;;;;;;1.67;0.60;;;21.50;99.90;;;;;;5137414;27;20457;-87
2023/07/16 08:02:21;;;;;;;6.37;0.80;;;21.50;99.90;;;;;;5136988;27;20538;-86
2023/07/16 08:04:49;;;;;;;0.77;0.63;;;21.80;99.90;;;;;;5136463;27;20452;-87
2023/07/16 08:07:15;;;;;;;3.30;0.50;;;22.10;99.90;;;;;;5137292;27;20442;-86
2023/07/16 08:09:42;;;;;;;1.23;0.73;;;22.20;99.90;;;;;;5136837;27;20476;-86
2023/07/16 08:12:09;;;;;;;0.60;0.60;;;22.30;99.90;;;;;;5136816;27;20477;-87
2023/07/16 08:14:36;;;;;;;1.40;0.80;;;22.50;99.90;;;;;;5137067;27;20188;-87
2023/07/16 08:17:03;;;;;;;1.17;0.50;;;22.60;99.90;;;;;;5136888;27;20446;-86
2023/07/16 08:19:30;;;;;;;0.57;0.57;;;22.50;99.90;;;;;;5136794;27;20445;-85
2023/07/16 08:21:58;;;;;;;0.77;0.77;;;22.50;99.90;;;;;;5137259;27;20564;-87
2023/07/16 08:24:26;;;;;;;1.07;0.70;;;22.50;99.90;;;;;;5136688;27;20435;-85
2023/07/16 08:26:52;;;;;;;1.33;0.73;;;22.50;99.90;;;;;;5136594;27;20200;-85
2023/07/16 08:29:19;;;;;;;0.70;0.70;;;22.50;99.90;;;;;;5136483;27;20823;-86
2023/07/16 08:31:46;;;;;;;0.57;0.57;;;22.30;99.90;;;;;;5136500;27;20212;-85
2023/07/16 08:34:13;;;;;;;1.00;0.90;;;22.40;99.90;;;;;;5136925;27;20196;-86
2023/07/16 08:36:39;;;;;;;1.17;0.70;;;22.40;99.90;;;;;;5137147;27;20276;-87
2023/07/16 08:39:08;;;;;;;1.03;0.60;;;22.50;99.90;;;;;;5136706;27;20679;-86
2023/07/16 08:41:35;;;;;;;0.50;0.43;;;22.50;99.90;;;;;;5136497;27;20216;-87
2023/07/16 08:44:02;;;;;;;0.63;0.60;;;22.50;99.90;;;;;;5136981;27;20573;-87
2023/07/16 08:46:29;;;;;;;0.80;0.50;;;22.50;99.90;;;;;;5137380;27;20282;-83
2023/07/16 08:48:57;;;;;;;0.60;0.50;;;22.30;99.90;;;;;;5136373;27;20196;-83
2023/07/16 08:51:26;;;;;;;0.80;0.57;;;22.10;99.90;;;;;;5135880;27;20496;-83
2023/07/16 08:53:52;;;;;;;0.50;0.40;;;21.80;99.90;;;;;;5136386;27;20411;-84
2023/07/16 08:56:21;;;;;;;1.03;0.50;;;21.70;99.90;;;;;;5136046;27;20449;-82
2023/07/16 08:58:49;;;;;;;1.00;0.60;;;22.00;99.90;;;;;;5137317;27;20457;-87
2023/07/16 09:01:18;;;;;;;1.40;0.60;;;22.30;99.90;;;;;;5142150;27;20236;-86
2023/07/16 09:03:46;;;;;;;4.17;0.70;;;22.60;99.90;;;;;;5144314;27;20204;-87
2023/07/16 09:06:13;;;;;;;0.57;0.57;;;22.70;99.90;;;;;;5144950;27;20200;-86
2023/07/16 09:08:40;;;;;;;0.70;0.50;;;22.80;99.90;;;;;;5142217;27;20218;-88
2023/07/16 09:11:12;;;;;;;1.02;0.70;;;23.30;99.90;;;;;;5142419;27;20219;-87
2023/07/16 09:13:45;;;;;;;0.60;0.60;;;23.80;99.90;;;;;;5149150;27;20173;-85
2023/07/16 09:16:12;;;;;;;0.90;0.70;;;23.90;99.90;;;;;;5146633;27;20180;-88
2023/07/16 09:18:41;;;;;;;0.50;0.50;;;24.40;99.90;;;;;;5154609;27;20199;-88
2023/07/16 09:21:08;;;;;;;0.77;0.52;;;24.40;99.90;;;;;;5155695;27;20235;-87
2023/07/16 09:23:36;;;;;;;0.60;0.60;;;24.60;99.90;;;;;;5150308;27;20239;-89
2023/07/16 09:26:04;;;;;;;0.50;0.50;;;24.70;99.90;;;;;;5156260;27;20196;-88
2023/07/16 09:28:32;;;;;;;1.85;0.60;;;24.70;99.90;;;;;;5158951;27;20209;-86
2023/07/16 09:31:07;;;;;;;1.13;0.63;;;24.60;99.90;;;;;;5156576;27;20204;-88
2023/07/16 09:33:35;;;;;;;0.60;0.52;;;24.40;99.90;;;;;;5155497;27;20207;-88
2023/07/16 09:36:05;;;;;;;1.35;0.50;;;24.30;99.90;;;;;;5154727;27;20211;-88
2023/07/16 09:38:34;;;;;;;8.23;0.60;;;24.30;99.90;;;;;;5157270;27;20232;-87
2023/07/16 09:41:04;;;;;;;1.10;0.73;;;24.10;99.90;;;;;;5153724;27;20226;-89
2023/07/16 09:43:31;;;;;;;0.73;0.52;;;24.00;99.90;;;;;;5153844;27;20200;-88
2023/07/16 09:45:58;;;;;;;2.30;0.60;;;24.00;99.90;;;;;;5150865;27;20240;-88
2023/07/16 09:48:27;;;;;;;1.52;0.55;;;24.10;99.90;;;;;;5153627;27;20215;-88
2023/07/16 09:50:55;;;;;;;0.50;0.50;;;24.10;99.90;;;;;;5151256;27;20212;-89
2023/07/16 09:53:22;;;;;;;2.17;0.50;;;24.10;99.90;;;;;;5154863;27;20227;-88
2023/07/16 09:55:50;;;;;;;1.40;0.60;;;23.90;99.90;;;;;;5150382;27;20200;-89
2023/07/16 09:58:22;;;;;;;0.65;0.65;;;24.00;99.90;;;;;;5152081;27;20659;-87
2023/07/16 10:00:50;;;;;;;1.92;0.95;;;24.30;99.90;;;;;;5150514;27;20220;-88
2023/07/16 10:03:18;;;;;;;7.88;0.60;;;24.60;99.90;;;;;;5150535;27;20206;-88
2023/07/16 10:05:46;;;;;;;0.70;0.70;;;24.90;99.90;;;;;;5149692;27;20225;-88
2023/07/16 10:08:21;;;;;;;1.30;0.70;;;25.00;99.90;;;;;;5147668;27;20223;-88
2023/07/16 10:10:51;;;;;;;0.80;0.60;;;25.00;99.90;;;;;;5150132;27;20211;-88
2023/07/16 10:13:18;;;;;;;0.60;0.60;;;24.60;99.90;;;;;;5150828;27;20687;-89
2023/07/16 10:15:53;;;;;;;0.70;0.70;;;24.40;99.90;;;;;;5154189;27;20203;-87
2023/07/16 10:18:32;;;;;;;3.50;0.60;;;24.50;99.90;;;;;;5146918;27;20203;-88
2023/07/16 10:21:05;;;;;;;0.73;0.70;;;24.50;99.90;;;;;;5149863;27;20239;-87
2023/07/16 10:23:40;;;;;;;3.67;0.60;;;24.40;99.90;;;;;;5150353;27;20185;-86
2023/07/16 10:26:11;;;;;;;0.80;0.60;;;24.20;99.90;;;;;;5143542;27;20560;-84
2023/07/16 10:28:39;;;;;;;1.15;0.80;;;24.10;99.90;;;;;;5142447;27;20190;-86
2023/07/16 10:31:07;;;;;;;0.60;0.60;;;24.30;99.90;;;;;;5146242;27;20215;-86
2023/07/16 10:33:37;;;;;;;0.60;0.60;;;24.20;99.90;;;;;;5145566;27;20234;-85
2023/07/16 10:36:05;;;;;;;1.10;0.93;;;24.20;99.90;;;;;;5145872;27;20203;-86
2023/07/16 10:38:41;;;;;;;2.25;1.00;;;24.30;99.90;;;;;;5144593;27;20195;-86
2023/07/16 10:41:09;;;;;;;0.60;0.60;;;24.40;99.90;;;;;;5144276;27;20273;-86
2023/07/16 10:43:36;;;;;;;0.60;0.60;;;24.50;99.90;;;;;;5145366;27;20207;-86
2023/07/16 10:46:03;;;;;;;0.68;0.68;;;24.40;99.90;;;;;;5142853;27;20204;-86
2023/07/16 10:48:31;;;;;;;0.70;0.70;;;24.60;99.90;;;;;;5143979;27;20200;-85
2023/07/16 10:50:58;;;;;;;1.40;0.70;;;24.70;99.90;;;;;;5143854;27;20307;-86
2023/07/16 10:53:26;;;;;;;2.00;0.75;;;24.60;99.90;;;;;;5140176;27;20216;-86
2023/07/16 10:55:53;;;;;;;0.60;0.60;;;24.40;99.90;;;;;;5138103;27;20716;-85
2023/07/16 10:58:20;;;;;;;0.57;0.50;;;24.40;99.90;;;;;;5140299;27;20560;-86
2023/07/16 11:00:47;;;;;;;0.80;0.80;;;24.40;99.90;;;;;;5140809;27;20226;-85
2023/07/16 11:03:16;;;;;;;1.90;1.00;;;24.40;99.90;;;;;;5137528;27;20204;-86
2023/07/16 11:05:46;;;;;;;0.80;0.50;;;24.60;99.90;;;;;;5139274;27;20208;-86
2023/07/16 11:08:23;;;;;;;0.70;0.50;;;24.70;99.90;;;;;;5142288;27;20275;-87
2023/07/16 11:10:56;;;;;;;0.80;0.65;;;24.50;99.90;;;;;;5142211;27;20230;-86
2023/07/16 11:13:27;;;;;;;2.15;0.50;;;24.40;99.90;;;;;;5139516;27;20612;-86
2023/07/16 11:15:54;;;;;;;1.10;0.77;;;24.10;99.90;;;;;;5148193;27;20196;-88
2023/07/16 11:18:23;;;;;;;0.50;0.50;;;24.10;99.90;;;;;;5144414;27;20204;-87
2023/07/16 11:20:52;;;;;;;0.80;0.80;;;24.00;99.90;;;;;;5158575;27;20219;-87
2023/07/16 11:23:20;;;;;;;0.80;0.73;;;24.00;99.90;;;;;;5157051;27;20214;-88
2023/07/16 11:25:48;;;;;;;1.08;0.70;;;24.00;99.90;;;;;;5230251;22;20235;-86
2023/07/16 11:28:17;;;;;;;0.90;0.68;;;24.00;99.90;;;;;;5055534;28;20267;-87
2023/07/16 11:30:44;;;;;;;0.65;0.65;;;23.90;99.90;;;;;;5056573;28;20267;-88
2023/07/16 11:33:11;;;;;;;0.77;0.70;;;23.90;99.90;;;;;;5054738;28;20227;-87
2023/07/16 11:35:39;;;;;;;0.80;0.80;;;23.80;99.90;;;;;;5051920;28;20286;-85
2023/07/16 11:38:06;;;;;;;0.77;0.60;;;23.90;99.90;;;;;;5043414;28;20223;-86
2023/07/16 11:40:35;;;;;;;0.60;0.60;;;24.00;99.90;;;;;;5046998;28;20229;-86
2023/07/16 11:43:10;;;;;;;0.70;0.70;;;24.20;99.90;;;;;;5041888;28;20210;-87
2023/07/16 11:45:39;;;;;;;0.57;0.50;;;23.90;99.90;;;;;;5037258;28;20175;-86
2023/07/16 11:48:06;;;;;;;2.53;0.65;;;23.70;99.90;;;;;;5037536;28;20215;-87
2023/07/16 11:50:33;;;;;;;3.22;1.02;;;23.50;99.90;;;;;;5036769;28;20229;-87
2023/07/16 11:53:01;;;;;;;0.80;0.60;;;23.50;99.90;;;;;;5036442;28;20587;-86
2023/07/16 11:55:28;;;;;;;0.82;0.82;;;23.60;99.90;;;;;;5036200;28;20195;-86
2023/07/16 11:57:56;;;;;;;2.45;0.60;;;23.80;99.90;;;;;;5036302;28;20294;-87
2023/07/16 12:00:23;;;;;;;0.70;0.50;;;23.90;99.90;;;;;;5037296;28;20223;-87
2023/07/16 12:02:51;;;;;;;0.82;0.60;;;23.70;99.90;;;;;;5036304;28;20808;-87
2023/07/16 12:05:19;;;;;;;1.65;0.60;;;23.70;99.90;;;;;;5036744;28;20208;-87
2023/07/16 12:07:45;;;;;;;0.82;0.60;;;23.60;99.90;;;;;;5036564;28;20200;-87
2023/07/16 12:10:12;;;;;;;0.60;0.60;;;23.50;99.90;;;;;;5036995;28;20215;-87
2023/07/16 12:12:39;;;;;;;1.15;0.55;;;23.50;99.90;;;;;;5036504;28;20219;-87
2023/07/16 12:15:07;;;;;;;0.55;0.55;;;23.60;99.90;;;;;;5036767;28;20219;-87
2023/07/16 12:17:33;;;;;;;1.25;0.75;;;23.40;99.90;;;;;;5036867;28;20203;-87
2023/07/16 12:20:03;;;;;;;0.70;0.70;;;23.50;99.90;;;;;;5036579;28;20216;-88
2023/07/16 12:22:30;;;;;;;1.30;0.88;;;23.50;99.90;;;;;;5036279;28;20200;-87
2023/07/16 12:24:57;;;;;;;0.60;0.60;;;23.40;99.90;;;;;;5035707;28;20246;-86
2023/07/16 12:27:24;;;;;;;0.70;0.70;;;23.40;99.90;;;;;;5036077;28;20207;-86
2023/07/16 12:29:52;;;;;;;4.68;0.88;;;23.40;99.90;;;;;;5036380;28;20219;-87
2023/07/16 12:32:20;;;;;;;1.33;0.60;;;23.50;99.90;;;;;;5035973;28;20223;-87
2023/07/16 12:34:46;;;;;;;1.92;0.80;;;23.70;99.90;;;;;;5036425;28;20216;-88
2023/07/16 12:37:16;;;;;;;0.93;0.70;;;23.90;99.90;;;;;;5036140;28;20196;-86
2023/07/16 12:39:43;;;;;;;2.50;0.70;;;23.90;99.90;;;;;;5036325;28;20314;-87
2023/07/16 12:42:10;;;;;;;0.80;0.80;;;23.90;99.90;;;;;;5037235;28;20209;-87
2023/07/16 12:44:36;;;;;;;0.45;0.45;;;24.00;99.90;;;;;;5037128;28;20203;-87
2023/07/16 12:47:05;;;;;;;0.90;0.68;;;24.20;99.90;;;;;;5036009;28;20226;-87
2023/07/16 12:49:31;;;;;;;0.65;0.65;;;24.40;99.90;;;;;;5035127;28;20279;-87